PKWA TAF

78.1 °F / 25.6 °C
SE at 3 MPH
87%
74.1°F / 23.4 °C
29.79" (1008 mb)
10 mile(s)
clear
2021.09.21 1640 UTC

PKWA TAF

2021/09/21 12:30
TAF PKWA 211125Z 2112/2212 07007KT P6SM VCSH SCT020 BKN100
TEMPO 2113/2117 10011G22KT 4SM SHRA BKN015 BKN050 OVC100